Time;durP1;ratioP1;P1;durP2;ratioP2;P2;SDS_P1;SDS_P2;PMS_P1;PMS_P2;Temp;Humidity;BMP_temperature;BMP_pressure;BME280_temperature;BME280_humidity;BME280_pressure;Samples;Min_cycle;Max_cycle;Signal;HPM_P1;HPM_P2
2022/03/30 00:01:01;;;;;;;0.30;0.30;;;5.80;99.90;;;;;;5055696;28;20480;-82
2022/03/30 00:03:27;;;;;;;0.00;0.00;;;5.20;99.90;;;;;;5038532;28;20095;-82
2022/03/30 00:05:53;;;;;;;1.25;0.40;;;5.30;99.90;;;;;;5038850;28;20052;-82
2022/03/30 00:08:19;;;;;;;0.00;0.00;;;5.30;99.90;;;;;;5055418;28;20542;-82
2022/03/30 00:10:45;;;;;;;0.00;0.00;;;5.20;99.90;;;;;;5055656;28;20040;-82
2022/03/30 00:13:10;;;;;;;0.25;0.05;;;5.30;99.90;;;;;;5038438;28;20480;-82
2022/03/30 00:15:36;;;;;;;0.00;0.00;;;5.20;99.90;;;;;;5039032;28;20198;-82
2022/03/30 00:18:02;;;;;;;0.73;0.35;;;5.20;99.90;;;;;;5038511;28;20037;-82
2022/03/30 00:20:28;;;;;;;0.38;0.25;;;5.10;99.90;;;;;;5055199;28;20451;-82
2022/03/30 00:22:54;;;;;;;0.93;0.85;;;5.10;99.90;;;;;;5038214;28;20056;-82
2022/03/30 00:25:20;;;;;;;0.98;0.22;;;5.30;99.90;;;;;;5055630;28;20053;-82
2022/03/30 00:27:46;;;;;;;0.00;0.00;;;5.00;99.90;;;;;;5038423;28;20543;-82
2022/03/30 00:30:18;;;;;;;0.65;0.43;;;5.00;99.90;;;;;;5038553;28;20044;-82
2022/03/30 00:32:44;;;;;;;0.75;0.32;;;5.10;99.90;;;;;;5054465;28;20041;-82
2022/03/30 00:35:10;;;;;;;1.38;0.35;;;4.90;99.90;;;;;;5054667;28;20036;-82
2022/03/30 00:37:37;;;;;;;0.00;0.00;;;4.80;99.90;;;;;;5054812;28;20052;-82
2022/03/30 00:40:07;;;;;;;0.00;0.00;;;4.80;99.90;;;;;;5038543;28;20079;-82
2022/03/30 00:42:33;;;;;;;0.00;0.00;;;4.70;99.90;;;;;;5038357;28;20114;-82
2022/03/30 00:45:10;;;;;;;0.00;0.00;;;4.70;99.90;;;;;;5038226;28;20045;-82
2022/03/30 00:47:37;;;;;;;0.00;0.00;;;4.60;99.90;;;;;;5038232;28;20390;-82
2022/03/30 00:50:04;;;;;;;0.40;0.20;;;4.50;99.90;;;;;;5037208;28;20136;-82
2022/03/30 00:52:30;;;;;;;0.00;0.00;;;4.40;99.90;;;;;;5055034;28;20492;-82
2022/03/30 00:54:57;;;;;;;0.47;0.47;;;4.30;99.90;;;;;;5054407;28;20041;-82
2022/03/30 00:57:27;;;;;;;1.88;0.05;;;4.40;99.90;;;;;;5054520;28;20041;-82
2022/03/30 00:59:54;;;;;;;0.77;0.77;;;4.60;99.90;;;;;;5054758;28;20595;-82
2022/03/30 01:02:20;;;;;;;0.00;0.00;;;4.50;99.90;;;;;;5037676;28;20480;-82
2022/03/30 01:04:47;;;;;;;0.00;0.00;;;4.50;99.90;;;;;;5054388;28;20206;-82
2022/03/30 01:07:14;;;;;;;1.00;0.52;;;4.50;99.90;;;;;;5054128;28;20150;-82
2022/03/30 01:09:40;;;;;;;0.10;0.10;;;4.60;99.90;;;;;;5054306;28;20105;-82
2022/03/30 01:12:08;;;;;;;0.20;0.20;;;4.60;99.90;;;;;;5037238;28;20053;-82
2022/03/30 01:14:34;;;;;;;0.52;0.10;;;4.50;99.90;;;;;;5054168;28;20385;-82
2022/03/30 01:17:00;;;;;;;0.00;0.00;;;4.50;99.90;;;;;;5037490;28;20051;-82
2022/03/30 01:19:31;;;;;;;0.00;0.00;;;4.50;99.90;;;;;;5053598;28;20128;-82
2022/03/30 01:21:57;;;;;;;0.38;0.00;;;4.50;99.90;;;;;;5054092;28;20055;-82
2022/03/30 01:24:23;;;;;;;0.00;0.00;;;4.50;99.90;;;;;;5053632;28;20515;-82
2022/03/30 01:26:49;;;;;;;0.20;0.20;;;4.60;99.90;;;;;;5037469;28;20049;-82
2022/03/30 01:34:44;;;;;;;0.00;0.00;;;4.70;99.90;;;;;;5054019;28;20131;-82
2022/03/30 01:37:12;;;;;;;0.35;0.35;;;4.50;99.90;;;;;;5053785;28;20080;-82
2022/03/30 01:39:39;;;;;;;0.00;0.00;;;4.60;99.90;;;;;;5037257;28;20088;-82
2022/03/30 01:42:05;;;;;;;0.00;0.00;;;4.50;99.90;;;;;;5053614;28;20045;-82
2022/03/30 01:44:31;;;;;;;0.00;0.00;;;4.50;99.90;;;;;;5054094;28;20403;-82
2022/03/30 01:46:57;;;;;;;0.00;0.00;;;4.60;99.90;;;;;;5037294;28;20144;-82
2022/03/30 01:49:26;;;;;;;0.00;0.00;;;4.50;99.90;;;;;;5053142;28;20132;-83
2022/03/30 01:51:54;;;;;;;0.00;0.00;;;4.50;99.90;;;;;;5036653;28;20049;-82
2022/03/30 01:54:22;;;;;;;0.00;0.00;;;4.50;99.90;;;;;;5037133;28;20057;-82
2022/03/30 01:56:49;;;;;;;0.15;0.15;;;4.50;99.90;;;;;;5053291;28;20052;-82
2022/03/30 01:59:16;;;;;;;0.00;0.00;;;4.40;99.90;;;;;;5053393;28;20056;-82
2022/03/30 02:01:42;;;;;;;0.00;0.00;;;4.40;99.90;;;;;;5052128;28;20159;-82
2022/03/30 02:04:09;;;;;;;0.30;0.30;;;4.40;99.90;;;;;;5052946;28;20134;-82
2022/03/30 02:06:36;;;;;;;1.65;0.17;;;4.40;99.90;;;;;;5053315;28;20519;-82
2022/03/30 02:09:03;;;;;;;0.00;0.00;;;4.30;99.90;;;;;;5052766;28;20485;-82
2022/03/30 02:11:29;;;;;;;0.25;0.25;;;4.30;99.90;;;;;;5036768;28;20068;-82
2022/03/30 02:13:55;;;;;;;0.22;0.20;;;4.30;99.90;;;;;;5053686;28;20481;-82
2022/03/30 02:16:22;;;;;;;0.00;0.00;;;4.30;99.90;;;;;;5036458;28;20053;-82
2022/03/30 02:18:48;;;;;;;0.03;0.03;;;4.20;99.90;;;;;;5035953;28;20124;-83
2022/03/30 02:21:15;;;;;;;0.00;0.00;;;4.20;99.90;;;;;;5036080;28;20076;-83
2022/03/30 02:23:41;;;;;;;1.00;0.35;;;4.10;99.90;;;;;;5052819;28;20363;-83
2022/03/30 02:26:07;;;;;;;0.22;0.20;;;4.00;99.90;;;;;;5036030;28;20114;-83
2022/03/30 02:28:33;;;;;;;1.02;0.55;;;4.00;99.90;;;;;;5036215;28;20049;-83
2022/03/30 02:30:59;;;;;;;0.10;0.10;;;3.80;99.90;;;;;;5036046;28;20115;-83
2022/03/30 02:33:26;;;;;;;0.00;0.00;;;4.10;99.90;;;;;;5035861;28;20469;-83
2022/03/30 02:35:52;;;;;;;0.20;0.20;;;3.80;99.90;;;;;;5052529;28;20052;-83
2022/03/30 02:38:18;;;;;;;0.10;0.08;;;3.80;99.90;;;;;;5035670;28;20095;-83
2022/03/30 02:40:44;;;;;;;0.00;0.00;;;3.90;99.90;;;;;;5052574;28;20048;-83
2022/03/30 02:43:10;;;;;;;2.45;0.60;;;4.00;99.90;;;;;;5052756;28;20055;-83
2022/03/30 02:45:36;;;;;;;0.17;0.10;;;4.00;99.90;;;;;;5036670;28;20045;-83
2022/03/30 02:48:17;;;;;;;0.05;0.05;;;4.00;99.90;;;;;;5035895;28;20095;-83
2022/03/30 02:50:47;;;;;;;0.30;0.20;;;4.10;99.90;;;;;;5035660;28;20059;-83
2022/03/30 02:53:14;;;;;;;0.00;0.00;;;4.20;99.90;;;;;;5035688;28;20084;-83
2022/03/30 02:55:43;;;;;;;0.00;0.00;;;4.30;99.90;;;;;;5052340;28;20056;-83
2022/03/30 02:58:10;;;;;;;0.47;0.30;;;4.30;99.90;;;;;;5035774;28;20045;-83
2022/03/30 03:00:37;;;;;;;0.15;0.00;;;4.30;99.90;;;;;;5035906;28;20044;-83
2022/03/30 03:03:04;;;;;;;0.47;0.20;;;4.40;99.90;;;;;;5052135;28;20468;-83
2022/03/30 03:05:32;;;;;;;2.72;0.22;;;4.40;99.90;;;;;;5052332;28;20049;-83
2022/03/30 03:08:03;;;;;;;0.50;0.50;;;4.40;99.90;;;;;;5052585;28;20116;-83
2022/03/30 03:10:29;;;;;;;1.10;1.00;;;4.40;99.90;;;;;;5052146;28;20048;-83
2022/03/30 03:12:56;;;;;;;0.10;0.10;;;4.40;99.90;;;;;;5037719;28;20460;-83
2022/03/30 03:15:22;;;;;;;0.13;0.08;;;4.50;99.90;;;;;;5056490;28;20055;-83
2022/03/30 03:17:48;;;;;;;0.30;0.30;;;4.50;99.90;;;;;;5039477;28;20053;-83
2022/03/30 03:20:14;;;;;;;0.00;0.00;;;4.60;99.90;;;;;;5039254;28;20143;-83
2022/03/30 03:22:41;;;;;;;0.00;0.00;;;4.60;99.90;;;;;;5056146;28;20051;-83
2022/03/30 03:25:08;;;;;;;0.00;0.00;;;4.60;99.90;;;;;;5039721;28;20411;-83
2022/03/30 03:27:34;;;;;;;0.05;0.00;;;4.60;99.90;;;;;;5039621;28;20087;-83
2022/03/30 03:29:59;;;;;;;0.00;0.00;;;4.60;99.90;;;;;;5039446;28;20081;-83
2022/03/30 03:32:25;;;;;;;0.22;0.22;;;4.70;99.90;;;;;;5055942;28;20511;-83
2022/03/30 03:34:51;;;;;;;0.70;0.70;;;4.70;99.90;;;;;;5038961;28;20041;-83
2022/03/30 03:37:20;;;;;;;0.00;0.00;;;4.60;99.90;;;;;;5038901;28;20044;-83
2022/03/30 03:39:46;;;;;;;1.75;0.10;;;4.60;99.90;;;;;;5039014;28;20041;-83
2022/03/30 03:42:12;;;;;;;0.20;0.20;;;4.50;99.90;;;;;;5055586;28;20041;-83
2022/03/30 03:44:38;;;;;;;1.00;0.47;;;4.40;99.90;;;;;;5039266;28;20120;-83
2022/03/30 03:47:05;;;;;;;1.10;0.95;;;4.40;99.90;;;;;;5039164;28;20049;-83
2022/03/30 03:49:31;;;;;;;0.08;0.08;;;4.40;99.90;;;;;;5039873;28;20087;-83
2022/03/30 03:51:57;;;;;;;0.00;0.00;;;4.50;99.90;;;;;;5038893;28;20037;-83
2022/03/30 03:54:22;;;;;;;0.00;0.00;;;4.40;99.90;;;;;;5055593;28;20476;-83
2022/03/30 03:56:48;;;;;;;1.65;0.98;;;4.40;99.90;;;;;;5038964;28;20476;-83
2022/03/30 03:59:14;;;;;;;0.60;0.13;;;4.50;99.90;;;;;;5039042;28;20045;-83
2022/03/30 04:01:42;;;;;;;0.43;0.10;;;4.50;99.90;;;;;;5055318;28;20052;-82
2022/03/30 04:04:11;;;;;;;0.05;0.05;;;4.60;99.90;;;;;;5055841;28;20057;-83
2022/03/30 04:06:36;;;;;;;0.10;0.10;;;4.60;99.90;;;;;;5038583;28;20059;-83
2022/03/30 04:09:03;;;;;;;0.00;0.00;;;4.60;99.90;;;;;;5038500;28;20049;-83
2022/03/30 04:11:29;;;;;;;0.85;0.40;;;4.60;99.90;;;;;;5054962;28;20037;-83
2022/03/30 04:13:55;;;;;;;0.45;0.40;;;4.60;99.90;;;;;;5038485;28;20451;-83
2022/03/30 04:16:21;;;;;;;1.45;0.52;;;4.60;99.90;;;;;;5055239;28;20128;-83
2022/03/30 04:18:46;;;;;;;0.45;0.20;;;4.60;99.90;;;;;;5055181;28;20048;-83
2022/03/30 04:21:12;;;;;;;0.45;0.20;;;4.70;99.90;;;;;;5038498;28;20064;-83
2022/03/30 04:23:38;;;;;;;0.47;0.47;;;4.70;99.90;;;;;;5053984;28;20086;-83
2022/03/30 04:26:04;;;;;;;0.10;0.10;;;4.70;99.90;;;;;;5054917;28;20080;-83
2022/03/30 04:28:30;;;;;;;0.00;0.00;;;4.80;99.90;;;;;;5055119;28;20044;-83
2022/03/30 04:30:56;;;;;;;0.03;0.03;;;4.80;99.90;;;;;;5054762;28;20559;-82
2022/03/30 04:33:22;;;;;;;0.50;0.10;;;4.80;99.90;;;;;;5038551;28;20060;-83
2022/03/30 04:35:48;;;;;;;0.47;0.10;;;4.80;99.90;;;;;;5037985;28;20049;-83
2022/03/30 04:38:14;;;;;;;0.10;0.00;;;4.80;99.90;;;;;;5038668;28;20052;-83
2022/03/30 04:40:40;;;;;;;0.00;0.00;;;4.80;99.90;;;;;;5054613;28;20492;-83
2022/03/30 04:43:06;;;;;;;0.00;0.00;;;4.80;99.90;;;;;;5054816;28;20048;-83
2022/03/30 04:45:32;;;;;;;0.20;0.20;;;4.80;99.90;;;;;;5038104;28;20057;-82
2022/03/30 04:47:58;;;;;;;0.00;0.00;;;4.80;99.90;;;;;;5038089;28;20060;-82
2022/03/30 04:50:25;;;;;;;0.28;0.28;;;4.90;99.90;;;;;;5055150;28;20128;-82
2022/03/30 04:52:51;;;;;;;0.88;0.65;;;4.90;99.90;;;;;;5054707;28;20044;-83
2022/03/30 04:55:17;;;;;;;0.77;0.20;;;4.90;99.90;;;;;;5054602;28;20044;-83
2022/03/30 04:57:42;;;;;;;2.30;0.57;;;5.00;99.90;;;;;;5054512;28;20080;-83
2022/03/30 05:00:12;;;;;;;0.00;0.00;;;5.00;99.90;;;;;;5054429;28;20041;-82
2022/03/30 05:02:39;;;;;;;0.00;0.00;;;5.00;99.90;;;;;;5037202;28;20052;-82
2022/03/30 05:05:08;;;;;;;0.98;0.57;;;5.00;99.90;;;;;;5054165;28;20134;-82
2022/03/30 05:07:34;;;;;;;0.52;0.20;;;5.00;99.90;;;;;;5054322;28;20052;-83
2022/03/30 05:10:00;;;;;;;0.30;0.10;;;5.10;99.90;;;;;;5037402;28;20052;-84
2022/03/30 05:12:26;;;;;;;2.75;0.50;;;5.10;99.90;;;;;;5054030;28;20040;-84
2022/03/30 05:14:52;;;;;;;0.00;0.00;;;5.10;99.90;;;;;;5054520;28;20090;-83
2022/03/30 05:17:18;;;;;;;0.22;0.20;;;5.10;99.90;;;;;;5037643;28;20139;-83
2022/03/30 05:19:44;;;;;;;0.05;0.05;;;5.20;99.90;;;;;;5053570;28;20055;-83
2022/03/30 05:22:11;;;;;;;0.10;0.10;;;5.10;99.90;;;;;;5054086;28;20049;-83
2022/03/30 05:24:37;;;;;;;0.20;0.20;;;5.20;99.90;;;;;;5037509;28;20051;-83
2022/03/30 05:27:03;;;;;;;1.30;0.43;;;5.20;99.90;;;;;;5053701;28;20041;-82
2022/03/30 05:29:29;;;;;;;0.75;0.32;;;5.30;99.90;;;;;;5038025;28;20080;-82
2022/03/30 05:31:55;;;;;;;0.50;0.20;;;5.20;99.90;;;;;;5053994;28;20076;-83
2022/03/30 05:34:21;;;;;;;1.25;0.65;;;5.30;99.90;;;;;;5036863;28;20500;-83
2022/03/30 05:36:46;;;;;;;0.73;0.20;;;5.30;99.90;;;;;;5053499;28;20045;-83
2022/03/30 05:39:12;;;;;;;0.30;0.10;;;5.30;99.90;;;;;;5053686;28;20040;-83
2022/03/30 05:41:38;;;;;;;2.90;0.00;;;5.40;99.90;;;;;;5053438;28;20045;-83
2022/03/30 05:44:04;;;;;;;0.50;0.50;;;5.40;99.90;;;;;;5037749;28;20159;-84
2022/03/30 05:46:30;;;;;;;0.32;0.30;;;5.50;99.90;;;;;;5053690;28;20091;-84
2022/03/30 05:48:56;;;;;;;0.30;0.00;;;5.40;99.90;;;;;;5036984;28;20119;-83
2022/03/30 05:51:21;;;;;;;0.22;0.22;;;5.40;99.90;;;;;;5053446;28;20064;-83
2022/03/30 05:53:47;;;;;;;0.00;0.00;;;5.20;99.90;;;;;;5036949;28;20048;-84
2022/03/30 05:56:16;;;;;;;0.52;0.45;;;5.70;99.90;;;;;;5053397;28;20053;-83
2022/03/30 05:58:41;;;;;;;0.00;0.00;;;5.50;99.90;;;;;;5053400;28;20053;-84
2022/03/30 06:01:07;;;;;;;0.50;0.10;;;5.60;99.90;;;;;;5053560;28;20052;-84
2022/03/30 06:03:37;;;;;;;0.00;0.00;;;5.40;99.90;;;;;;5036341;28;20053;-84
2022/03/30 06:06:07;;;;;;;0.10;0.10;;;5.60;99.90;;;;;;5036679;28;20060;-84
2022/03/30 06:08:34;;;;;;;1.05;1.00;;;5.60;99.90;;;;;;5036634;28;20087;-84
2022/03/30 06:11:00;;;;;;;2.25;0.93;;;5.60;99.90;;;;;;5036450;28;20374;-85
2022/03/30 06:13:26;;;;;;;2.53;0.45;;;5.90;99.90;;;;;;5036210;28;20041;-84
2022/03/30 06:15:54;;;;;;;0.32;0.32;;;5.80;99.90;;;;;;5052894;28;20052;-84
2022/03/30 06:18:20;;;;;;;1.20;0.82;;;5.60;99.90;;;;;;5052988;28;20127;-85
2022/03/30 06:20:46;;;;;;;1.15;0.90;;;5.70;99.90;;;;;;5052877;28;20049;-84
2022/03/30 06:23:12;;;;;;;1.48;1.00;;;5.90;99.90;;;;;;5035677;28;20052;-84
2022/03/30 06:25:39;;;;;;;0.05;0.05;;;5.70;99.90;;;;;;5052683;28;20045;-84
2022/03/30 06:28:05;;;;;;;0.03;0.03;;;5.70;99.90;;;;;;5053373;28;20049;-84
2022/03/30 06:30:30;;;;;;;0.00;0.00;;;5.70;99.90;;;;;;5036037;28;20045;-84
2022/03/30 06:32:56;;;;;;;0.00;0.00;;;5.80;99.90;;;;;;5052604;28;20045;-84
2022/03/30 06:35:23;;;;;;;0.25;0.10;;;5.90;99.90;;;;;;5036287;28;20049;-83
2022/03/30 06:37:51;;;;;;;0.15;0.15;;;5.80;99.90;;;;;;5052446;28;20584;-83
2022/03/30 06:40:17;;;;;;;0.00;0.00;;;5.80;99.90;;;;;;5035894;28;20061;-83
2022/03/30 06:42:44;;;;;;;0.00;0.00;;;5.90;99.90;;;;;;5053295;28;20045;-83
2022/03/30 06:45:11;;;;;;;0.10;0.08;;;5.90;99.90;;;;;;5035887;28;20049;-83
2022/03/30 06:47:37;;;;;;;0.10;0.00;;;6.10;99.90;;;;;;5035223;28;20040;-83
2022/03/30 06:50:05;;;;;;;0.50;0.10;;;6.00;99.90;;;;;;5052581;28;20045;-83
2022/03/30 06:52:35;;;;;;;0.10;0.10;;;6.10;99.90;;;;;;5052067;28;20045;-84
2022/03/30 06:55:02;;;;;;;0.00;0.00;;;6.20;99.90;;;;;;5035920;28;20049;-83
2022/03/30 06:57:30;;;;;;;0.10;0.05;;;6.20;99.90;;;;;;5052459;28;20552;-83
2022/03/30 06:59:56;;;;;;;0.00;0.00;;;6.30;99.90;;;;;;5052239;28;20508;-83
2022/03/30 07:02:22;;;;;;;0.00;0.00;;;6.30;99.90;;;;;;5051699;28;20177;-83
2022/03/30 07:04:47;;;;;;;0.00;0.00;;;7.60;99.90;;;;;;5052019;28;20044;-84
2022/03/30 07:10:15;;;;;;;0.10;0.10;;;6.50;99.90;;;;;;5052251;28;20064;-84
2022/03/30 07:12:50;;;;;;;0.25;0.25;;;6.80;99.90;;;;;;5035372;28;20136;-84
2022/03/30 07:15:18;;;;;;;1.02;0.20;;;7.50;99.90;;;;;;5052254;28;20053;-82
2022/03/30 07:17:52;;;;;;;0.00;0.00;;;8.10;99.90;;;;;;5053080;28;20463;-83
2022/03/30 07:20:20;;;;;;;0.00;0.00;;;8.10;99.90;;;;;;5055925;28;20053;-83
2022/03/30 07:22:47;;;;;;;0.10;0.00;;;8.30;99.90;;;;;;5072078;28;20545;-83
2022/03/30 07:25:14;;;;;;;0.00;0.00;;;8.50;99.90;;;;;;5072402;28;20045;-84
2022/03/30 07:27:43;;;;;;;3.30;0.00;;;8.80;99.90;;;;;;5050570;28;20536;-83
2022/03/30 07:30:11;;;;;;;0.00;0.00;;;8.90;99.90;;;;;;5035619;28;20072;-83
2022/03/30 07:32:39;;;;;;;0.00;0.00;;;8.80;99.90;;;;;;5035148;28;20056;-83
2022/03/30 07:35:09;;;;;;;0.00;0.00;;;8.90;99.90;;;;;;5035127;28;20041;-83
2022/03/30 07:37:36;;;;;;;0.00;0.00;;;8.90;99.90;;;;;;5035678;28;20044;-83
2022/03/30 07:40:04;;;;;;;0.00;0.00;;;9.40;99.90;;;;;;5035608;28;20060;-82
2022/03/30 07:42:30;;;;;;;0.00;0.00;;;9.30;99.90;;;;;;5035191;28;20056;-82
2022/03/30 07:44:56;;;;;;;0.10;0.00;;;9.40;99.90;;;;;;5052049;28;20052;-82
2022/03/30 07:47:22;;;;;;;0.00;0.00;;;9.10;99.90;;;;;;5051668;28;20057;-82
2022/03/30 07:49:49;;;;;;;0.00;0.00;;;8.90;99.90;;;;;;5035501;28;20044;-84
2022/03/30 07:52:15;;;;;;;0.00;0.00;;;8.70;99.90;;;;;;5035838;28;20056;-83
2022/03/30 07:54:41;;;;;;;0.00;0.00;;;8.40;99.90;;;;;;5035226;28;20049;-82
2022/03/30 07:57:08;;;;;;;0.00;0.00;;;8.70;99.90;;;;;;5051598;28;20516;-84
2022/03/30 07:59:34;;;;;;;0.00;0.00;;;8.50;99.90;;;;;;5055023;28;20048;-82
2022/03/30 08:01:59;;;;;;;0.00;0.00;;;8.60;99.90;;;;;;5054882;28;20057;-82
2022/03/30 08:04:25;;;;;;;0.00;0.00;;;8.40;99.90;;;;;;5055612;28;20048;-82
2022/03/30 08:06:52;;;;;;;0.00;0.00;;;8.30;99.90;;;;;;5055850;28;20051;-82
2022/03/30 08:09:19;;;;;;;0.00;0.00;;;8.30;99.90;;;;;;5055498;28;20060;-83
2022/03/30 08:11:45;;;;;;;0.00;0.00;;;8.40;99.90;;;;;;5039137;28;20495;-82
2022/03/30 08:14:12;;;;;;;0.00;0.00;;;7.70;99.90;;;;;;5055161;28;20041;-83
2022/03/30 08:16:39;;;;;;;0.00;0.00;;;8.10;99.90;;;;;;5055545;28;20052;-82
2022/03/30 08:19:05;;;;;;;0.00;0.00;;;8.20;99.90;;;;;;5055264;28;20071;-82
2022/03/30 08:24:15;;;;;;;0.00;0.00;;;7.80;99.90;;;;;;5055182;28;20056;-82
2022/03/30 08:26:41;;;;;;;0.00;0.00;;;7.80;99.90;;;;;;5055202;28;20051;-82
2022/03/30 08:29:08;;;;;;;0.00;0.00;;;7.90;99.90;;;;;;5038770;28;20503;-82
2022/03/30 08:31:34;;;;;;;0.00;0.00;;;7.80;99.90;;;;;;5055385;28;20080;-83
2022/03/30 08:34:00;;;;;;;0.00;0.00;;;7.90;99.90;;;;;;5054962;28;20122;-82
2022/03/30 08:36:29;;;;;;;0.10;0.10;;;7.90;99.90;;;;;;5055009;28;20091;-83
2022/03/30 08:38:59;;;;;;;0.00;0.00;;;7.90;99.90;;;;;;5038030;28;20477;-82
2022/03/30 08:41:25;;;;;;;0.00;0.00;;;7.90;99.90;;;;;;5038145;28;20055;-82
2022/03/30 08:43:52;;;;;;;0.00;0.00;;;7.90;99.90;;;;;;5037819;28;20049;-82
2022/03/30 08:46:18;;;;;;;0.10;0.10;;;8.00;99.90;;;;;;5037832;28;20065;-82
2022/03/30 08:48:44;;;;;;;0.00;0.00;;;8.10;99.90;;;;;;5054757;28;20047;-83
2022/03/30 08:51:10;;;;;;;0.00;0.00;;;8.20;99.90;;;;;;5037635;28;20051;-83
2022/03/30 08:53:36;;;;;;;0.00;0.00;;;8.20;99.90;;;;;;5056125;28;20049;-82
2022/03/30 08:56:03;;;;;;;0.00;0.00;;;8.20;99.90;;;;;;5055641;28;20048;-83
2022/03/30 08:58:29;;;;;;;0.00;0.00;;;8.30;99.90;;;;;;5038075;28;20063;-82
2022/03/30 09:01:09;;;;;;;0.00;0.00;;;8.30;99.90;;;;;;5054582;28;20472;-82
2022/03/30 09:03:35;;;;;;;0.00;0.00;;;8.30;99.90;;;;;;5055312;28;20497;-82
2022/03/30 09:06:01;;;;;;;0.40;0.00;;;8.30;99.90;;;;;;5038069;28;20057;-82
2022/03/30 09:08:27;;;;;;;0.00;0.00;;;8.40;99.90;;;;;;5054340;28;20594;-82
2022/03/30 09:10:58;;;;;;;0.00;0.00;;;8.50;99.90;;;;;;5054272;28;20408;-82
2022/03/30 09:13:24;;;;;;;0.00;0.00;;;8.50;99.90;;;;;;5037479;28;20179;-82
2022/03/30 09:15:51;;;;;;;0.00;0.00;;;8.60;99.90;;;;;;5037949;28;20045;-82
2022/03/30 09:18:18;;;;;;;0.00;0.00;;;8.60;99.90;;;;;;5054015;28;20052;-82
2022/03/30 09:20:47;;;;;;;0.00;0.00;;;8.60;99.90;;;;;;5037363;28;20049;-82
2022/03/30 09:23:14;;;;;;;0.00;0.00;;;8.60;99.90;;;;;;5054021;28;20051;-82
2022/03/30 09:25:46;;;;;;;0.00;0.00;;;8.70;99.90;;;;;;5054172;28;20067;-82
2022/03/30 09:28:12;;;;;;;0.00;0.00;;;8.80;99.90;;;;;;5053968;28;20062;-82
2022/03/30 09:30:38;;;;;;;0.00;0.00;;;9.00;99.90;;;;;;5054111;28;20135;-82
2022/03/30 09:33:08;;;;;;;0.00;0.00;;;9.20;99.90;;;;;;5036671;28;20090;-83
2022/03/30 09:35:38;;;;;;;0.00;0.00;;;9.30;99.90;;;;;;5053859;28;20144;-82
2022/03/30 09:38:12;;;;;;;0.00;0.00;;;9.30;99.90;;;;;;5037384;28;20049;-82
2022/03/30 09:40:50;;;;;;;0.35;0.35;;;9.30;99.90;;;;;;5037417;28;20435;-82
2022/03/30 09:43:23;;;;;;;0.00;0.00;;;9.20;99.90;;;;;;5037185;28;20045;-82
2022/03/30 09:46:02;;;;;;;0.00;0.00;;;9.40;99.90;;;;;;5036932;28;20551;-82
2022/03/30 09:48:30;;;;;;;0.00;0.00;;;9.60;99.90;;;;;;5037370;28;20095;-82
2022/03/30 09:50:57;;;;;;;0.35;0.28;;;9.60;99.90;;;;;;5037203;28;20052;-82
2022/03/30 09:53:26;;;;;;;0.00;0.00;;;9.80;99.90;;;;;;5036498;28;20048;-82
2022/03/30 09:55:56;;;;;;;0.00;0.00;;;9.70;99.90;;;;;;5036827;28;20084;-83
2022/03/30 09:58:25;;;;;;;0.00;0.00;;;9.50;99.90;;;;;;5053054;28;20515;-82
2022/03/30 10:01:19;;;;;;;0.00;0.00;;;9.40;99.90;;;;;;5053657;28;20045;-82
2022/03/30 10:03:52;;;;;;;0.00;0.00;;;9.40;99.40;;;;;;5035748;28;20057;-83
2022/03/30 10:06:24;;;;;;;0.00;0.00;;;9.50;99.30;;;;;;5035659;28;20049;-83
2022/03/30 10:08:51;;;;;;;0.00;0.00;;;9.70;99.70;;;;;;5036945;28;20045;-83
2022/03/30 10:11:17;;;;;;;0.00;0.00;;;10.00;98.40;;;;;;5053204;28;20090;-83
2022/03/30 10:13:46;;;;;;;0.00;0.00;;;10.10;97.40;;;;;;5053002;28;20596;-83
2022/03/30 10:16:13;;;;;;;0.00;0.00;;;10.20;97.10;;;;;;5036584;28;20052;-82
2022/03/30 10:18:39;;;;;;;0.00;0.00;;;10.30;96.00;;;;;;5036032;28;20053;-82
2022/03/30 10:21:17;;;;;;;0.00;0.00;;;10.60;96.40;;;;;;5052549;28;20060;-82
2022/03/30 10:24:02;;;;;;;0.00;0.00;;;10.60;95.30;;;;;;5053005;28;20060;-82
2022/03/30 10:26:48;;;;;;;0.10;0.00;;;10.60;94.90;;;;;;5052819;28;20048;-83
2022/03/30 10:29:16;;;;;;;0.00;0.00;;;10.50;93.70;;;;;;5052930;28;20052;-82
2022/03/30 10:31:42;;;;;;;7.82;0.10;;;10.70;94.80;;;;;;5052806;28;20536;-82
2022/03/30 10:34:26;;;;;;;0.25;0.00;;;10.80;93.50;;;;;;5052777;28;20385;-83
2022/03/30 10:37:09;;;;;;;0.20;0.10;;;10.70;92.80;;;;;;5052731;28;20040;-83
2022/03/30 10:39:52;;;;;;;0.00;0.00;;;10.50;92.50;;;;;;5035902;28;20487;-82
2022/03/30 10:42:18;;;;;;;0.00;0.00;;;10.60;92.70;;;;;;5036010;28;20110;-82
2022/03/30 10:44:57;;;;;;;0.00;0.00;;;10.60;92.50;;;;;;5036511;28;20472;-83
2022/03/30 10:47:26;;;;;;;0.32;0.00;;;10.60;92.90;;;;;;5052821;28;20045;-82
2022/03/30 10:50:02;;;;;;;0.00;0.00;;;10.60;92.30;;;;;;5035984;28;20049;-82
2022/03/30 10:52:44;;;;;;;0.00;0.00;;;10.70;93.30;;;;;;5036579;28;20090;-83
2022/03/30 10:55:13;;;;;;;0.00;0.00;;;10.80;93.20;;;;;;5052264;28;20484;-83
2022/03/30 10:58:01;;;;;;;0.00;0.00;;;10.60;91.90;;;;;;5052669;28;20519;-82
2022/03/30 11:00:39;;;;;;;0.00;0.00;;;10.50;92.30;;;;;;5035854;28;20050;-82
2022/03/30 11:03:13;;;;;;;0.00;0.00;;;10.50;92.70;;;;;;5052276;28;20065;-83
2022/03/30 11:05:57;;;;;;;0.00;0.00;;;10.50;92.30;;;;;;5052375;28;20094;-82
2022/03/30 11:08:32;;;;;;;0.00;0.00;;;10.60;92.70;;;;;;5052414;28;20045;-83
2022/03/30 11:11:01;;;;;;;0.00;0.00;;;10.80;92.60;;;;;;5052350;28;20128;-83
2022/03/30 11:13:28;;;;;;;0.00;0.00;;;10.80;92.90;;;;;;5035870;28;20075;-82
2022/03/30 11:15:59;;;;;;;1.20;0.32;;;10.90;92.20;;;;;;5035805;28;20053;-82
2022/03/30 11:18:28;;;;;;;0.75;0.20;;;10.90;92.00;;;;;;5035452;28;20053;-83
2022/03/30 11:21:12;;;;;;;0.00;0.00;;;11.00;92.70;;;;;;5035788;28;20103;-83
2022/03/30 11:23:58;;;;;;;0.00;0.00;;;11.00;92.00;;;;;;5036266;28;20056;-83
2022/03/30 11:26:49;;;;;;;0.00;0.00;;;10.80;91.20;;;;;;5035786;28;20094;-82
2022/03/30 11:29:40;;;;;;;0.00;0.00;;;10.80;91.30;;;;;;5035415;28;20041;-83
2022/03/30 11:32:25;;;;;;;0.00;0.00;;;10.70;91.20;;;;;;5058548;28;20045;-80
2022/03/30 11:34:54;;;;;;;0.00;0.00;;;10.50;88.80;;;;;;5033657;28;20167;-81
2022/03/30 11:37:26;;;;;;;0.00;0.00;;;10.50;90.20;;;;;;5019045;28;20053;-81
2022/03/30 11:40:04;;;;;;;0.00;0.00;;;10.50;90.40;;;;;;5001772;28;20057;-81
2022/03/30 11:42:30;;;;;;;0.00;0.00;;;10.40;89.50;;;;;;5018247;28;20401;-81
2022/03/30 11:45:14;;;;;;;0.00;0.00;;;10.50;88.90;;;;;;5001459;28;20060;-82
2022/03/30 11:48:10;;;;;;;0.00;0.00;;;10.50;90.00;;;;;;5018226;28;20042;-82
2022/03/30 11:50:48;;;;;;;0.00;0.00;;;10.50;89.10;;;;;;4958780;28;20062;-82
2022/03/30 11:53:21;;;;;;;0.57;0.30;;;10.50;89.10;;;;;;4970308;28;20086;-81
2022/03/30 11:55:56;;;;;;;0.00;0.00;;;10.50;88.60;;;;;;4943587;28;20071;-81
2022/03/30 11:58:34;;;;;;;0.00;0.00;;;10.50;89.10;;;;;;4943067;28;20066;-81
2022/03/30 12:01:03;;;;;;;0.00;0.00;;;10.60;90.10;;;;;;4943119;28;20094;-82
2022/03/30 12:03:33;;;;;;;0.13;0.13;;;10.50;90.30;;;;;;4942883;28;20635;-81
2022/03/30 12:06:01;;;;;;;0.00;0.00;;;10.30;90.10;;;;;;4942846;28;20562;-82
2022/03/30 12:08:27;;;;;;;0.00;0.00;;;10.10;90.70;;;;;;4958889;28;20054;-81
2022/03/30 12:11:03;;;;;;;0.00;0.00;;;10.10;90.30;;;;;;4943377;28;20063;-81
2022/03/30 12:13:29;;;;;;;0.20;0.00;;;10.10;90.20;;;;;;4961600;28;20051;-82
2022/03/30 12:16:05;;;;;;;0.00;0.00;;;10.00;90.20;;;;;;4979725;28;20042;-81
2022/03/30 12:18:34;;;;;;;0.00;0.00;;;9.90;90.60;;;;;;4983915;28;20058;-82
2022/03/30 12:21:01;;;;;;;0.00;0.00;;;9.70;90.40;;;;;;4997431;28;20054;-80
2022/03/30 12:23:27;;;;;;;0.85;0.00;;;9.80;91.20;;;;;;4997884;28;20520;-80
2022/03/30 12:25:53;;;;;;;0.00;0.00;;;9.80;91.10;;;;;;4995576;28;20078;-81
2022/03/30 12:28:30;;;;;;;0.00;0.00;;;9.80;90.70;;;;;;5065318;28;20048;-81
2022/03/30 12:30:56;;;;;;;0.20;0.20;;;9.90;90.40;;;;;;5037793;28;20045;-81
2022/03/30 12:33:22;;;;;;;0.00;0.00;;;10.00;89.30;;;;;;5055341;28;20142;-80
2022/03/30 12:35:47;;;;;;;0.00;0.00;;;10.10;90.10;;;;;;5074269;28;20400;-81
2022/03/30 12:38:14;;;;;;;0.00;0.00;;;10.30;91.10;;;;;;5056663;28;20056;-81
2022/03/30 12:40:44;;;;;;;0.00;0.00;;;10.50;89.70;;;;;;5057785;28;20071;-81
2022/03/30 12:43:11;;;;;;;0.00;0.00;;;10.60;88.80;;;;;;5074429;28;20070;-82
2022/03/30 12:45:53;;;;;;;0.00;0.00;;;10.80;90.70;;;;;;5056539;28;20058;-82
2022/03/30 12:48:29;;;;;;;0.00;0.00;;;10.80;86.80;;;;;;5057746;28;20089;-82
2022/03/30 12:50:59;;;;;;;0.00;0.00;;;10.80;88.50;;;;;;5057303;28;20090;-82
2022/03/30 12:53:31;;;;;;;0.00;0.00;;;10.80;86.20;;;;;;5057461;28;20032;-81
2022/03/30 12:56:19;;;;;;;0.00;0.00;;;10.80;86.10;;;;;;5058238;28;20049;-82
2022/03/30 12:58:55;;;;;;;0.00;0.00;;;10.90;86.40;;;;;;5057411;28;20052;-81
2022/03/30 13:01:49;;;;;;;0.00;0.00;;;11.00;83.90;;;;;;5073961;28;20195;-81
2022/03/30 13:04:22;;;;;;;0.00;0.00;;;11.10;83.00;;;;;;5057529;28;20407;-82
2022/03/30 13:07:07;;;;;;;0.00;0.00;;;11.20;82.30;;;;;;5073460;28;20055;-82
2022/03/30 13:09:34;;;;;;;0.00;0.00;;;11.00;80.50;;;;;;5057006;28;20561;-81
2022/03/30 13:12:00;;;;;;;0.00;0.00;;;11.00;80.30;;;;;;5074021;28;20045;-82
2022/03/30 13:14:27;;;;;;;0.00;0.00;;;11.00;81.00;;;;;;5074304;28;20037;-81